KLNR/LNR METAR and TAF weather

Enter ICAO airport designator
Station Type Date Time Source
KLNR METAR 2022/11/30 10:13 UTC NOAA

KLNR 301013Z AUTO 28013KT 10SM SCT027 M02/M10 A2983 RMK AO2 PK WND 29026/0958 T10221100


Station Type Date Time Source
KLNR Decoded METAR 2022/11/30 10:13 UTC NOAA

LONE ROCK TRI-COUNTY REG, WI, United States (KLNR) 43-13N 090-11W 217M
Nov 30, 2022 - 05:13 AM EST / 2022.11.30 1013 UTC
Wind: from the W (280 degrees) at 15 MPH (13 KT):0
Visibility: 10 mile(s):0
Sky conditions: partly cloudy
Temperature: 28.0 F (-2.2 C)
Windchill: 15 F (-9 C):1
Dew Point: 14.0 F (-10.0 C)
Relative Humidity: 55%
Pressure (altimeter): 29.83 in. Hg (1010 hPa)
ob: KLNR 301013Z AUTO 28013KT 10SM SCT027 M02/M10 A2983 RMK AO2 PK WND 29026/0958 T10221100
cycle: 10

Station Type Date Time Source
KLNR TAF UTC NOAA

Error!

Example: see airport list